모두
Alice Downs Stn Airport YACD 기상
There is no TAF data available at YACD or any nearby airports.
There is no METAR data available at YACD. Showing METAR data for YBCK (12 mi 남).
최근 BKQ METAR 이력(YACD에 대한 데이터 없음)
| Date | Time (AEST) | Flight Rules | Wind Dir. | Speed | Type | Height AGL (ft) | Visibility | Temp (°C) | Temp (°F) | Dew Point (°C) | Dew Point (°F) | Rel. Humid. | Pressure | Density Altitude | Remarks |
|---|---|---|---|---|---|---|---|---|---|---|---|---|---|---|---|
| 03-5월 | 16:00 | n/a | 80° | 6 kt | Missing | 28° | 82° | 12° | 53° | 37% | 1015 mb | 2,435 ft | |||
| 03-5월 | 15:00 | n/a | 10° | 9 kt | Missing | 29° | 84° | 11° | 51° | 33% | 1015 mb | 2,555 ft | |||
| 03-5월 | 14:00 | n/a | 80° | 9 kt | Missing | 28° | 82° | 12° | 53° | 37% | 1015 mb | 2,435 ft | |||
| 03-5월 | 13:00 | n/a | 20° | 7 kt | Missing | 29° | 84° | 11° | 51° | 33% | 1016 mb | 2,526 ft | |||
| 03-5월 | 12:00 | n/a | 70° | 7 kt | Missing | 28° | 82° | 14° | 57° | 42% | 1018 mb | 2,346 ft | |||
| 03-5월 | 11:00 | n/a | 70° | 8 kt | Missing | 27° | 80° | 15° | 59° | 48% | 1019 mb | 2,197 ft | |||
| 03-5월 | 10:00 | n/a | 30° | 10 kt | Missing | 25° | 77° | 15° | 59° | 54% | 1019 mb | 1,957 ft | |||
| 03-5월 | 09:00 | n/a | 50° | 14 kt | Missing | 24° | 75° | 15° | 59° | 57% | 1019 mb | 1,837 ft | |||
| 03-5월 | 08:00 | n/a | 60° | 7 kt | Missing | 21° | 69° | 15° | 59° | 69% | 1018 mb | 1,506 ft | |||
| 03-5월 | 07:00 | n/a | 60° | 6 kt | Missing | 18° | 64° | 13° | 55° | 73% | 1018 mb | 1,146 ft | |||
| 03-5월 | 06:00 | n/a | 70° | 8 kt | Missing | 18° | 64° | 13° | 55° | 73% | 1017 mb | 1,176 ft | |||
| 03-5월 | 05:00 | n/a | 70° | 6 kt | Missing | 15° | 59° | 10° | 50° | 72% | 1016 mb | 846 ft | |||
| 03-5월 | 04:00 | n/a | 90° | 4 kt | Missing | 15° | 59° | 8° | 46° | 63% | 1016 mb | 846 ft | |||
| 03-5월 | 03:00 | n/a | 60° | 4 kt | Missing | 17° | 62° | 8° | 46° | 55% | 1016 mb | 1,086 ft | |||
| 03-5월 | 02:00 | n/a | 80° | 6 kt | Missing | 17° | 62° | 8° | 46° | 55% | 1016 mb | 1,086 ft | |||
| 03-5월 | 01:00 | n/a | 70° | 10 kt | Missing | 19° | 66° | 8° | 46° | 49% | 1016 mb | 1,326 ft | |||
| 03-5월 | 00:00 | n/a | 70° | 7 kt | Missing | 18° | 64° | 9° | 48° | 56% | 1017 mb | 1,176 ft | |||
| 02-5월 | 23:00 | n/a | 60° | 4 kt | Missing | 19° | 66° | 8° | 46° | 49% | 1018 mb | 1,266 ft | |||
| 02-5월 | 22:00 | n/a | 70° | 6 kt | Missing | 20° | 68° | 9° | 48° | 49% | 1018 mb | 1,386 ft | |||
| 02-5월 | 21:00 | n/a | 60° | 5 kt | Missing | 22° | 71° | 9° | 48° | 43% | 1018 mb | 1,626 ft | |||
| 02-5월 | 20:00 | n/a | 40° | 4 kt | Missing | 22° | 71° | 8° | 46° | 41% | 1017 mb | 1,656 ft | |||
| 02-5월 | 19:00 | n/a | 40° | 4 kt | Missing | 23° | 73° | 8° | 46° | 38% | 1016 mb | 1,806 ft | |||
| 02-5월 | 18:00 | n/a | 30° | 4 kt | Missing | 26° | 78° | 8° | 46° | 32% | 1016 mb | 2,166 ft | |||
| 02-5월 | 17:00 | n/a | 50° | 3 kt | Missing | 27° | 80° | 8° | 46° | 30% | 1015 mb | 2,315 ft |
로그인
| 귀하의 브라우저는 지원되지 않습니다.. 브라우저를 업그레이드하세요 |
